Time;durP1;ratioP1;P1;durP2;ratioP2;P2;SDS_P1;SDS_P2;PMS_P1;PMS_P2;Temp;Humidity;BMP_temperature;BMP_pressure;BME280_temperature;BME280_humidity;BME280_pressure;Samples;Min_cycle;Max_cycle;Signal;HPM_P1;HPM_P2
2022/03/07 00:00:20;;;;;;;;;;;0.50;85.60;;;;;;5032897;28;19925;-70
2022/03/07 00:02:47;;;;;;;;;;;0.60;85.90;;;;;;5034192;28;19929;-70
2022/03/07 00:05:15;;;;;;;;;;;0.60;85.70;;;;;;5031903;28;20372;-71
2022/03/07 00:07:42;;;;;;;;;;;0.50;85.80;;;;;;5034428;28;19980;-70
2022/03/07 00:10:09;;;;;;;;;;;0.40;86.30;;;;;;5029864;28;19929;-71
2022/03/07 00:12:37;;;;;;;;;;;0.40;86.70;;;;;;5033860;28;20028;-71
2022/03/07 00:15:04;;;;;;;;;;;0.40;87.20;;;;;;5032693;28;19925;-71
2022/03/07 00:17:31;;;;;;;;;;;0.40;87.70;;;;;;5034724;28;19931;-74
2022/03/07 00:19:57;;;;;;;;;;;0.30;87.70;;;;;;5031557;28;19932;-71
2022/03/07 00:22:24;;;;;;;;;;;0.30;88.10;;;;;;5033504;28;19972;-71
2022/03/07 00:24:51;;;;;;;;;;;0.20;88.80;;;;;;5031284;28;19925;-71
2022/03/07 00:27:17;;;;;;;;;;;0.20;89.30;;;;;;5033468;28;19932;-71
2022/03/07 00:29:45;;;;;;;;;;;0.10;89.90;;;;;;5032149;28;19925;-71
2022/03/07 00:32:12;;;;;;;;;;;0.10;90.20;;;;;;5032690;28;20287;-71
2022/03/07 00:34:39;;;;;;;;;;;0.00;90.60;;;;;;5032652;28;19936;-71
2022/03/07 00:37:06;;;;;;;;;;;0.00;91.20;;;;;;5033934;28;19931;-71
2022/03/07 00:39:35;;;;;;;;;;;-0.10;92.00;;;;;;5030310;28;19925;-71
2022/03/07 00:42:02;;;;;;;;;;;-0.30;92.70;;;;;;5032847;28;20355;-71
2022/03/07 00:44:28;;;;;;;;;;;-0.30;93.40;;;;;;5031897;28;19925;-71
2022/03/07 00:46:56;;;;;;;;;;;-0.30;93.80;;;;;;5033000;28;20014;-71
2022/03/07 00:49:23;;;;;;;;;;;-0.20;94.10;;;;;;5030961;28;19932;-71
2022/03/07 00:51:49;;;;;;;;;;;-0.30;94.40;;;;;;5032962;28;20385;-71
2022/03/07 00:54:16;;;;;;;;;;;-0.30;94.70;;;;;;5031639;28;20399;-71
2022/03/07 00:56:43;;;;;;;;;;;-0.40;95.00;;;;;;5032770;28;19931;-71
2022/03/07 00:59:10;;;;;;;;;;;-0.40;95.50;;;;;;5032314;28;20005;-69
2022/03/07 01:01:37;;;;;;;;;;;-0.50;95.70;;;;;;5033145;28;20007;-70
2022/03/07 01:04:05;;;;;;;;;;;-0.40;96.10;;;;;;5031776;28;20315;-70
2022/03/07 01:06:31;;;;;;;;;;;-0.40;96.30;;;;;;5032808;28;19955;-69
2022/03/07 01:08:58;;;;;;;;;;;-0.50;96.50;;;;;;5031276;28;19983;-70
2022/03/07 01:11:25;;;;;;;;;;;-0.50;96.70;;;;;;5032966;28;19929;-70
2022/03/07 01:13:53;;;;;;;;;;;-0.50;96.60;;;;;;5031954;28;19940;-70
2022/03/07 01:16:20;;;;;;;;;;;-0.60;96.80;;;;;;5032873;28;20406;-72
2022/03/07 01:18:46;;;;;;;;;;;-0.40;97.00;;;;;;5033240;28;20451;-70
2022/03/07 01:21:14;;;;;;;;;;;-0.60;97.10;;;;;;5035753;28;19925;-71
2022/03/07 01:23:42;;;;;;;;;;;-0.50;97.30;;;;;;5033640;28;20015;-71
2022/03/07 01:26:09;;;;;;;;;;;-0.50;96.90;;;;;;5015481;28;20300;-70
2022/03/07 01:28:35;;;;;;;;;;;-0.40;96.60;;;;;;5014368;28;20376;-70
2022/03/07 01:31:02;;;;;;;;;;;-0.30;96.10;;;;;;5015175;28;20322;-72
2022/03/07 01:33:29;;;;;;;;;;;-0.30;96.20;;;;;;5015555;28;20019;-71
2022/03/07 01:35:55;;;;;;;;;;;-0.40;96.10;;;;;;5032211;28;20361;-70
2022/03/07 01:38:23;;;;;;;;;;;-0.30;96.20;;;;;;5032217;28;19925;-70
2022/03/07 01:40:50;;;;;;;;;;;-0.30;96.00;;;;;;5037546;28;20319;-70
2022/03/07 01:43:17;;;;;;;;;;;-0.40;96.10;;;;;;5039386;28;19929;-74
2022/03/07 01:45:44;;;;;;;;;;;-0.50;96.30;;;;;;5033591;28;19932;-71
2022/03/07 01:48:11;;;;;;;;;;;-0.50;96.40;;;;;;5031173;28;19925;-71
2022/03/07 01:50:38;;;;;;;;;;;-0.60;96.50;;;;;;5030182;28;19925;-71
2022/03/07 01:53:04;;;;;;;;;;;-0.60;96.80;;;;;;5031970;28;19931;-71
2022/03/07 01:55:32;;;;;;;;;;;-0.70;97.10;;;;;;5030261;28;20299;-71
2022/03/07 01:57:59;;;;;;;;;;;-0.60;97.20;;;;;;5030970;28;20011;-71
2022/03/07 02:00:27;;;;;;;;;;;-0.70;97.40;;;;;;5031255;28;20351;-71
2022/03/07 02:02:54;;;;;;;;;;;-0.70;97.50;;;;;;5032838;28;20314;-72
2022/03/07 02:05:20;;;;;;;;;;;-0.80;97.60;;;;;;5030135;28;19959;-71
2022/03/07 02:07:47;;;;;;;;;;;-0.80;97.50;;;;;;5033405;28;20300;-71
2022/03/07 02:10:14;;;;;;;;;;;-0.80;97.60;;;;;;5030759;28;19930;-71
2022/03/07 02:12:42;;;;;;;;;;;-0.80;97.80;;;;;;5029581;28;19925;-71
2022/03/07 02:15:09;;;;;;;;;;;-0.70;97.70;;;;;;5030882;28;19925;-71
2022/03/07 02:17:36;;;;;;;;;;;-0.90;97.70;;;;;;5032445;28;20015;-71
2022/03/07 02:20:03;;;;;;;;;;;-0.80;98.10;;;;;;5030055;28;20015;-72
2022/03/07 02:22:31;;;;;;;;;;;-1.00;98.10;;;;;;5032001;28;20289;-71
2022/03/07 02:24:58;;;;;;;;;;;-1.00;98.10;;;;;;5030918;28;19925;-71
2022/03/07 02:27:25;;;;;;;;;;;-1.00;98.20;;;;;;5032103;28;20012;-71
2022/03/07 02:29:51;;;;;;;;;;;-1.00;98.20;;;;;;5030844;28;19925;-71
2022/03/07 02:32:18;;;;;;;;;;;-1.00;98.40;;;;;;5031874;28;20008;-71
2022/03/07 02:34:45;;;;;;;;;;;-1.10;98.60;;;;;;5030366;28;19995;-71
2022/03/07 02:37:11;;;;;;;;;;;-1.10;98.80;;;;;;5033023;28;19925;-71
2022/03/07 02:39:39;;;;;;;;;;;-1.20;98.90;;;;;;5034488;28;19925;-71
2022/03/07 02:42:06;;;;;;;;;;;-1.10;99.10;;;;;;5035567;28;19931;-71
2022/03/07 02:44:33;;;;;;;;;;;-1.10;99.20;;;;;;5033815;28;20310;-71
2022/03/07 02:47:00;;;;;;;;;;;-1.30;99.30;;;;;;5035098;28;19929;-71
2022/03/07 02:49:26;;;;;;;;;;;-1.20;99.40;;;;;;5030664;28;20524;-71
2022/03/07 02:51:53;;;;;;;;;;;-1.20;99.30;;;;;;5035123;28;19929;-71
2022/03/07 02:54:19;;;;;;;;;;;-1.20;99.30;;;;;;5033684;28;19925;-71
2022/03/07 02:56:47;;;;;;;;;;;-1.30;99.20;;;;;;5035122;28;19931;-71
2022/03/07 02:59:14;;;;;;;;;;;-1.30;99.30;;;;;;5034736;28;20343;-71
2022/03/07 03:01:43;;;;;;;;;;;-1.30;99.40;;;;;;5034668;28;20376;-71
2022/03/07 03:04:09;;;;;;;;;;;-1.30;99.50;;;;;;5034582;28;19928;-71
2022/03/07 03:06:36;;;;;;;;;;;-1.30;99.50;;;;;;5035449;28;19925;-71
2022/03/07 03:09:03;;;;;;;;;;;-1.30;99.50;;;;;;5035188;28;19936;-71
2022/03/07 03:11:31;;;;;;;;;;;-1.30;99.40;;;;;;5035008;28;20006;-71
2022/03/07 03:13:59;;;;;;;;;;;-1.50;99.60;;;;;;5033650;28;19924;-71
2022/03/07 03:16:26;;;;;;;;;;;-1.40;99.80;;;;;;5034691;28;19925;-71
2022/03/07 03:18:53;;;;;;;;;;;-1.40;99.70;;;;;;5034069;28;19933;-71
2022/03/07 03:21:20;;;;;;;;;;;-1.40;99.40;;;;;;5028657;28;19925;-71
2022/03/07 03:23:47;;;;;;;;;;;-1.30;99.00;;;;;;5016086;28;20308;-72
2022/03/07 03:26:14;;;;;;;;;;;-1.30;98.90;;;;;;5034979;28;19997;-71
2022/03/07 03:28:42;;;;;;;;;;;-1.30;98.80;;;;;;5032490;28;19929;-72
2022/03/07 03:31:11;;;;;;;;;;;-1.30;98.70;;;;;;5030864;28;20376;-71
2022/03/07 03:33:38;;;;;;;;;;;-1.40;98.80;;;;;;5032167;28;20075;-71
2022/03/07 03:36:05;;;;;;;;;;;-1.30;98.90;;;;;;5034662;28;20415;-72
2022/03/07 03:38:32;;;;;;;;;;;-1.40;98.90;;;;;;5034563;28;20019;-71
2022/03/07 03:40:58;;;;;;;;;;;-1.40;98.90;;;;;;5032993;28;20000;-71
2022/03/07 03:43:25;;;;;;;;;;;-1.50;98.90;;;;;;5033315;28;19925;-72
2022/03/07 03:45:52;;;;;;;;;;;-1.40;99.10;;;;;;5034304;28;19925;-71
2022/03/07 03:48:20;;;;;;;;;;;-1.50;99.10;;;;;;5035274;28;19925;-71
2022/03/07 03:50:46;;;;;;;;;;;-1.50;99.10;;;;;;5033632;28;19925;-71
2022/03/07 03:53:13;;;;;;;;;;;-1.50;99.20;;;;;;5034331;28;19925;-71
2022/03/07 03:55:40;;;;;;;;;;;-1.40;99.10;;;;;;5033333;28;20306;-71
2022/03/07 03:58:06;;;;;;;;;;;-1.50;98.90;;;;;;5033301;28;20297;-71
2022/03/07 04:00:33;;;;;;;;;;;-1.50;99.00;;;;;;5033092;28;20374;-72
2022/03/07 04:03:00;;;;;;;;;;;-1.50;98.90;;;;;;5034173;28;19986;-72
2022/03/07 04:05:28;;;;;;;;;;;-1.50;99.00;;;;;;5032467;28;19975;-71
2022/03/07 04:07:54;;;;;;;;;;;-1.40;98.90;;;;;;5033800;28;19932;-71
2022/03/07 04:10:21;;;;;;;;;;;-1.40;98.70;;;;;;5031283;28;19979;-71
2022/03/07 04:12:48;;;;;;;;;;;-1.50;98.80;;;;;;5033578;28;20008;-71
2022/03/07 04:15:14;;;;;;;;;;;-1.40;98.80;;;;;;5032377;28;19972;-71
2022/03/07 04:17:42;;;;;;;;;;;-1.50;99.00;;;;;;5033742;28;20016;-71
2022/03/07 04:20:09;;;;;;;;;;;-1.40;98.80;;;;;;5032740;28;19925;-71
2022/03/07 04:22:38;;;;;;;;;;;-1.40;98.90;;;;;;5032310;28;19931;-71
2022/03/07 04:25:05;;;;;;;;;;;-1.50;98.80;;;;;;5031051;28;19925;-71
2022/03/07 04:27:32;;;;;;;;;;;-1.40;98.70;;;;;;5033304;28;20296;-71
2022/03/07 04:29:59;;;;;;;;;;;-1.50;98.60;;;;;;5031288;28;20331;-71
2022/03/07 04:32:25;;;;;;;;;;;-1.50;98.80;;;;;;5033022;28;20090;-71
2022/03/07 04:34:52;;;;;;;;;;;-1.50;98.70;;;;;;5031319;28;19925;-71
2022/03/07 04:37:19;;;;;;;;;;;-1.60;98.70;;;;;;5033743;28;19925;-71
2022/03/07 04:39:47;;;;;;;;;;;-1.60;98.80;;;;;;5031557;28;19929;-70
2022/03/07 04:42:13;;;;;;;;;;;-1.60;98.90;;;;;;5033582;28;19972;-71
2022/03/07 04:44:40;;;;;;;;;;;-1.50;99.00;;;;;;5031085;28;19931;-71
2022/03/07 04:47:07;;;;;;;;;;;-1.60;98.90;;;;;;5033309;28;19958;-71
2022/03/07 04:49:34;;;;;;;;;;;-1.60;99.10;;;;;;5031933;28;19973;-70
2022/03/07 04:52:00;;;;;;;;;;;-1.70;99.20;;;;;;5030202;28;19925;-70
2022/03/07 04:54:27;;;;;;;;;;;-1.60;99.20;;;;;;5032022;28;20346;-71
2022/03/07 04:56:55;;;;;;;;;;;-1.60;99.30;;;;;;5032694;28;20451;-71
2022/03/07 04:59:22;;;;;;;;;;;-1.70;99.40;;;;;;5030941;28;19959;-71
2022/03/07 05:01:48;;;;;;;;;;;-1.60;99.50;;;;;;5033308;28;19926;-71
2022/03/07 05:04:15;;;;;;;;;;;-1.70;99.50;;;;;;5032208;28;19925;-71
2022/03/07 05:06:41;;;;;;;;;;;-1.60;99.70;;;;;;5032838;28;19939;-71
2022/03/07 05:09:08;;;;;;;;;;;-1.60;99.70;;;;;;5031590;28;20021;-71
2022/03/07 05:11:35;;;;;;;;;;;-1.60;99.90;;;;;;5033040;28;20470;-71
2022/03/07 05:14:03;;;;;;;;;;;-1.80;99.80;;;;;;5032102;28;19964;-71
2022/03/07 05:16:30;;;;;;;;;;;-1.70;99.90;;;;;;5035273;28;19931;-72
2022/03/07 05:18:57;;;;;;;;;;;-1.80;99.90;;;;;;5038286;28;20012;-71
2022/03/07 05:21:23;;;;;;;;;;;-1.80;99.90;;;;;;5036294;28;20004;-71
2022/03/07 05:23:50;;;;;;;;;;;-1.80;99.90;;;;;;5030721;28;20004;-72
2022/03/07 05:26:17;;;;;;;;;;;-1.80;99.90;;;;;;5032344;28;20039;-70
2022/03/07 05:28:43;;;;;;;;;;;-1.90;99.90;;;;;;5031528;28;20303;-71
2022/03/07 05:31:13;;;;;;;;;;;-1.80;99.90;;;;;;5032460;28;20403;-71
2022/03/07 05:33:40;;;;;;;;;;;-1.80;99.90;;;;;;5031510;28;20339;-71
2022/03/07 05:36:07;;;;;;;;;;;-1.80;99.90;;;;;;5032764;28;19925;-71
2022/03/07 05:38:35;;;;;;;;;;;-1.80;99.90;;;;;;5032836;28;19931;-71
2022/03/07 05:41:01;;;;;;;;;;;-1.80;99.90;;;;;;5032463;28;19925;-71
2022/03/07 05:43:28;;;;;;;;;;;-1.80;99.90;;;;;;5032881;28;20334;-71
2022/03/07 05:45:55;;;;;;;;;;;-1.80;99.90;;;;;;5031632;28;20012;-71
2022/03/07 05:48:23;;;;;;;;;;;-1.90;99.90;;;;;;5032857;28;20288;-71
2022/03/07 05:50:49;;;;;;;;;;;-1.80;99.90;;;;;;5031014;28;20016;-71
2022/03/07 05:53:21;;;;;;;;;;;-1.80;99.90;;;;;;5030935;28;20012;-71
2022/03/07 05:55:48;;;;;;;;;;;-1.90;99.90;;;;;;5030702;28;19943;-71
2022/03/07 05:58:14;;;;;;;;;;;-1.90;99.90;;;;;;5034204;28;19997;-71
2022/03/07 06:00:41;;;;;;;;;;;-1.90;99.90;;;;;;5031096;28;19925;-71
2022/03/07 06:03:08;;;;;;;;;;;-1.90;99.90;;;;;;5032545;28;20296;-71
2022/03/07 06:05:36;;;;;;;;;;;-1.80;99.90;;;;;;5031815;28;20277;-71
2022/03/07 06:08:04;;;;;;;;;;;-1.90;99.90;;;;;;5032919;28;20012;-71
2022/03/07 06:10:31;;;;;;;;;;;-1.90;99.90;;;;;;5030526;28;20284;-71
2022/03/07 06:12:57;;;;;;;;;;;-1.90;99.90;;;;;;5035508;28;19925;-71
2022/03/07 06:15:24;;;;;;;;;;;-1.90;99.90;;;;;;5034420;28;19924;-71
2022/03/07 06:17:52;;;;;;;;;;;-2.00;99.90;;;;;;5040964;28;19929;-71
2022/03/07 06:20:18;;;;;;;;;;;-2.00;99.90;;;;;;5037812;28;19960;-71
2022/03/07 06:22:46;;;;;;;;;;;-2.00;99.90;;;;;;5034435;28;19925;-71
2022/03/07 06:25:13;;;;;;;;;;;-1.90;99.90;;;;;;5036487;28;19928;-71
2022/03/07 06:27:40;;;;;;;;;;;-1.90;99.90;;;;;;5037706;28;19925;-73
2022/03/07 06:30:08;;;;;;;;;;;-1.80;99.90;;;;;;5035601;28;20021;-71
2022/03/07 06:32:35;;;;;;;;;;;-1.90;99.90;;;;;;5036722;28;19928;-71
2022/03/07 06:35:02;;;;;;;;;;;-1.80;99.90;;;;;;5035670;28;19973;-71
2022/03/07 06:37:29;;;;;;;;;;;-1.70;99.90;;;;;;5036764;28;20727;-71
2022/03/07 06:39:57;;;;;;;;;;;-1.70;99.90;;;;;;5036410;28;19925;-71
2022/03/07 06:42:23;;;;;;;;;;;-1.60;99.90;;;;;;5038528;28;19935;-71
2022/03/07 06:44:50;;;;;;;;;;;-1.60;99.90;;;;;;5034889;28;19968;-71
2022/03/07 06:47:17;;;;;;;;;;;-1.60;99.90;;;;;;5035359;28;20020;-72
2022/03/07 06:49:47;;;;;;;;;;;-1.60;99.90;;;;;;5034652;28;19935;-72
2022/03/07 06:52:13;;;;;;;;;;;-1.50;99.90;;;;;;5034616;28;19975;-71
2022/03/07 06:54:40;;;;;;;;;;;-1.50;99.90;;;;;;5034551;28;20016;-71
2022/03/07 06:57:08;;;;;;;;;;;-1.40;99.80;;;;;;5033719;28;19931;-72
2022/03/07 06:59:35;;;;;;;;;;;-1.40;99.60;;;;;;5033481;28;19925;-71
2022/03/07 07:02:02;;;;;;;;;;;-1.50;99.40;;;;;;5036553;28;19931;-71
2022/03/07 07:04:28;;;;;;;;;;;-1.40;99.60;;;;;;5033925;28;19933;-71
2022/03/07 07:06:55;;;;;;;;;;;-1.20;99.20;;;;;;5037273;28;19925;-71
2022/03/07 07:09:22;;;;;;;;;;;-1.20;99.00;;;;;;5035724;28;19925;-72
2022/03/07 07:11:48;;;;;;;;;;;-1.20;99.10;;;;;;5035169;28;19931;-71
2022/03/07 07:14:21;;;;;;;;;;;-1.10;98.90;;;;;;5033554;28;20000;-69
2022/03/07 07:16:48;;;;;;;;;;;-1.10;98.60;;;;;;5034506;28;20007;-71
2022/03/07 07:19:15;;;;;;;;;;;-0.80;97.80;;;;;;5033956;28;19957;-72
2022/03/07 07:21:41;;;;;;;;;;;-0.80;97.40;;;;;;5031409;28;19925;-71
2022/03/07 07:24:09;;;;;;;;;;;-0.70;96.90;;;;;;5032956;28;20007;-71
2022/03/07 07:26:36;;;;;;;;;;;-0.60;96.80;;;;;;5034000;28;20430;-72
2022/03/07 07:29:03;;;;;;;;;;;-0.70;96.90;;;;;;5032034;28;20039;-71
2022/03/07 07:31:31;;;;;;;;;;;-0.60;96.70;;;;;;5034339;28;19926;-72
2022/03/07 07:33:58;;;;;;;;;;;-0.50;96.30;;;;;;5033706;28;20384;-71
2022/03/07 07:36:24;;;;;;;;;;;-0.60;96.00;;;;;;5034548;28;19925;-71
2022/03/07 07:38:51;;;;;;;;;;;-0.50;96.10;;;;;;5033513;28;19933;-71
2022/03/07 07:41:18;;;;;;;;;;;-0.50;95.80;;;;;;5034494;28;19925;-70
2022/03/07 07:43:44;;;;;;;;;;;-0.50;95.60;;;;;;5032110;28;19925;-71
2022/03/07 07:46:11;;;;;;;;;;;-0.40;95.80;;;;;;5032385;28;19925;-71
2022/03/07 07:48:39;;;;;;;;;;;-0.30;95.60;;;;;;5033034;28;20015;-71
2022/03/07 07:51:05;;;;;;;;;;;-0.30;95.50;;;;;;5033163;28;20020;-71
2022/03/07 07:53:32;;;;;;;;;;;-0.20;95.10;;;;;;5014113;28;20015;-71
2022/03/07 07:56:01;;;;;;;;;;;-0.10;95.10;;;;;;5031321;28;20389;-71
2022/03/07 07:58:28;;;;;;;;;;;0.00;94.50;;;;;;5033685;28;20004;-71
2022/03/07 08:00:55;;;;;;;;;;;0.00;94.40;;;;;;5032718;28;19964;-71
2022/03/07 08:03:21;;;;;;;;;;;0.90;93.20;;;;;;5034594;28;19925;-71
2022/03/07 08:05:49;;;;;;;;;;;2.10;89.30;;;;;;5031962;28;19925;-72
2022/03/07 08:08:16;;;;;;;;;;;2.50;82.80;;;;;;5033944;28;20452;-67
2022/03/07 08:10:43;;;;;;;;;;;3.20;77.70;;;;;;5032490;28;20390;-72
2022/03/07 08:13:10;;;;;;;;;;;3.60;73.60;;;;;;5032851;28;19925;-71
2022/03/07 08:15:36;;;;;;;;;;;3.70;70.70;;;;;;5031891;28;20292;-71
2022/03/07 08:18:03;;;;;;;;;;;4.20;68.60;;;;;;5034081;28;19991;-72
2022/03/07 08:20:30;;;;;;;;;;;4.00;65.50;;;;;;5032338;28;19925;-72
2022/03/07 08:22:58;;;;;;;;;;;3.50;64.30;;;;;;5032621;28;19931;-71
2022/03/07 08:25:25;;;;;;;;;;;3.70;65.10;;;;;;5032751;28;19925;-71
2022/03/07 08:27:52;;;;;;;;;;;3.60;62.80;;;;;;5033673;28;19932;-71
2022/03/07 08:30:22;;;;;;;;;;;3.90;60.60;;;;;;5031059;28;20195;-71
2022/03/07 08:32:49;;;;;;;;;;;4.70;56.50;;;;;;5033780;28;19948;-71
2022/03/07 08:35:16;;;;;;;;;;;4.60;55.10;;;;;;5030972;28;19925;-71
2022/03/07 08:37:45;;;;;;;;;;;4.90;55.30;;;;;;5032163;28;19931;-71
2022/03/07 08:40:14;;;;;;;;;;;5.60;51.90;;;;;;5032067;28;19925;-71
2022/03/07 08:42:41;;;;;;;;;;;6.00;48.60;;;;;;5034015;28;20004;-71
2022/03/07 08:45:08;;;;;;;;;;;5.20;46.80;;;;;;5032768;28;20333;-71
2022/03/07 08:47:36;;;;;;;;;;;6.30;45.30;;;;;;5033258;28;19925;-71
2022/03/07 08:50:03;;;;;;;;;;;6.90;42.30;;;;;;5030807;28;20024;-71
2022/03/07 08:52:29;;;;;;;;;;;5.30;44.40;;;;;;5033701;28;19952;-72
2022/03/07 08:54:56;;;;;;;;;;;5.30;44.80;;;;;;5033849;28;20032;-71
2022/03/07 08:57:24;;;;;;;;;;;4.90;45.00;;;;;;5033050;28;20016;-71
2022/03/07 08:59:51;;;;;;;;;;;4.80;44.20;;;;;;5029863;28;19925;-71
2022/03/07 09:02:18;;;;;;;;;;;5.20;43.90;;;;;;5032786;28;19947;-71
2022/03/07 09:04:45;;;;;;;;;;;5.00;42.50;;;;;;5030797;28;20505;-71
2022/03/07 09:07:11;;;;;;;;;;;5.00;43.80;;;;;;5032529;28;19925;-71
2022/03/07 09:09:38;;;;;;;;;;;4.70;43.90;;;;;;5030142;28;19925;-71
2022/03/07 09:12:07;;;;;;;;;;;5.20;42.90;;;;;;5032543;28;19936;-72
2022/03/07 09:14:36;;;;;;;;;;;6.30;41.10;;;;;;5030279;28;20394;-71
2022/03/07 09:17:03;;;;;;;;;;;6.60;39.00;;;;;;5032979;28;19948;-71
2022/03/07 09:19:29;;;;;;;;;;;6.40;38.40;;;;;;5032050;28;19947;-72
2022/03/07 09:21:56;;;;;;;;;;;5.20;38.50;;;;;;5031048;28;19926;-71
2022/03/07 09:24:23;;;;;;;;;;;4.90;39.20;;;;;;5031195;28;20300;-71
2022/03/07 09:26:50;;;;;;;;;;;4.60;39.80;;;;;;5032715;28;19925;-71
2022/03/07 09:29:16;;;;;;;;;;;4.20;40.90;;;;;;5031267;28;19931;-71
2022/03/07 09:31:44;;;;;;;;;;;4.20;40.90;;;;;;5032718;28;19932;-71
2022/03/07 09:34:12;;;;;;;;;;;4.30;39.00;;;;;;5031422;28;19932;-72
2022/03/07 09:36:39;;;;;;;;;;;4.60;38.10;;;;;;5029747;28;19925;-71
2022/03/07 09:39:06;;;;;;;;;;;4.10;39.50;;;;;;5031162;28;19925;-72
2022/03/07 09:41:32;;;;;;;;;;;4.50;39.80;;;;;;5032959;28;19931;-71
2022/03/07 09:43:59;;;;;;;;;;;4.40;37.90;;;;;;5029877;28;19930;-71
2022/03/07 09:46:26;;;;;;;;;;;4.10;39.60;;;;;;5033187;28;20384;-71
2022/03/07 09:48:55;;;;;;;;;;;3.70;39.70;;;;;;5034196;28;19933;-71
2022/03/07 09:51:24;;;;;;;;;;;3.10;42.30;;;;;;5036597;28;20085;-71
2022/03/07 09:53:51;;;;;;;;;;;2.80;42.80;;;;;;5034484;28;19933;-71
2022/03/07 09:56:17;;;;;;;;;;;2.70;43.10;;;;;;5036307;28;20398;-71
2022/03/07 09:58:45;;;;;;;;;;;2.70;43.30;;;;;;5034207;28;19925;-71
2022/03/07 10:01:13;;;;;;;;;;;2.70;43.70;;;;;;5036413;28;19925;-71
2022/03/07 10:03:40;;;;;;;;;;;2.80;43.00;;;;;;5035130;28;19925;-70
2022/03/07 10:06:15;;;;;;;;;;;2.80;43.50;;;;;;5035778;28;19925;-71
2022/03/07 10:08:51;;;;;;;;;;;2.80;43.50;;;;;;5033932;28;19932;-70
2022/03/07 10:11:18;;;;;;;;;;;2.80;43.20;;;;;;5033103;28;20008;-70
2022/03/07 10:13:49;;;;;;;;;;;2.80;43.10;;;;;;5035755;28;20360;-71
2022/03/07 10:16:17;;;;;;;;;;;2.80;44.00;;;;;;5035249;28;20398;-70
2022/03/07 10:18:48;;;;;;;;;;;2.90;43.40;;;;;;5036048;28;20015;-70
2022/03/07 10:21:21;;;;;;;;;;;3.00;42.10;;;;;;5035598;28;19936;-70
2022/03/07 10:23:50;;;;;;;;;;;3.00;42.30;;;;;;5036095;28;19925;-70
2022/03/07 10:26:17;;;;;;;;;;;3.10;43.30;;;;;;5035133;28;19925;-71
2022/03/07 10:28:51;;;;;;;;;;;3.30;42.50;;;;;;5034141;28;19933;-71
2022/03/07 10:31:19;;;;;;;;;;;3.30;41.40;;;;;;5021305;28;19925;-71
2022/03/07 10:33:46;;;;;;;;;;;3.30;42.30;;;;;;5034325;28;19931;-71
2022/03/07 10:36:12;;;;;;;;;;;3.40;41.40;;;;;;5035160;28;19925;-71
2022/03/07 10:38:42;;;;;;;;;;;3.40;41.40;;;;;;5033600;28;20028;-70
2022/03/07 10:41:09;;;;;;;;;;;3.30;42.40;;;;;;5016132;28;19925;-70
2022/03/07 10:43:45;;;;;;;;;;;3.30;41.50;;;;;;5015562;28;19929;-70
2022/03/07 10:46:12;;;;;;;;;;;3.50;41.70;;;;;;5031796;28;19935;-70
2022/03/07 10:48:43;;;;;;;;;;;3.50;41.50;;;;;;5033473;28;19931;-70
2022/03/07 10:51:16;;;;;;;;;;;3.60;41.70;;;;;;5023380;28;19933;-70
2022/03/07 10:53:45;;;;;;;;;;;3.50;41.80;;;;;;5034307;28;19947;-70
2022/03/07 10:56:12;;;;;;;;;;;3.60;42.20;;;;;;5015157;28;19925;-70
2022/03/07 10:58:45;;;;;;;;;;;3.70;42.40;;;;;;5014819;28;19932;-71
2022/03/07 11:01:12;;;;;;;;;;;3.70;41.60;;;;;;5016043;28;19925;-70
2022/03/07 11:03:41;;;;;;;;;;;3.50;41.30;;;;;;5015384;28;20471;-71
2022/03/07 11:06:09;;;;;;;;;;;3.70;41.00;;;;;;5034783;28;19929;-70
2022/03/07 11:08:36;;;;;;;;;;;3.80;41.00;;;;;;5033581;28;19931;-70
2022/03/07 11:11:04;;;;;;;;;;;4.00;42.20;;;;;;5034411;28;19936;-70
2022/03/07 11:13:34;;;;;;;;;;;3.90;40.60;;;;;;5034570;28;19929;-70
2022/03/07 11:16:01;;;;;;;;;;;3.80;41.40;;;;;;5034352;28;20400;-71
2022/03/07 11:18:29;;;;;;;;;;;4.10;41.10;;;;;;5033416;28;20015;-71
2022/03/07 11:20:56;;;;;;;;;;;4.00;40.50;;;;;;5033317;28;19931;-71
2022/03/07 11:23:23;;;;;;;;;;;4.10;40.50;;;;;;5033550;28;20026;-71
2022/03/07 11:25:50;;;;;;;;;;;4.40;41.60;;;;;;5033581;28;20021;-70
2022/03/07 11:28:19;;;;;;;;;;;4.00;40.00;;;;;;5034723;28;19929;-71
2022/03/07 11:30:46;;;;;;;;;;;4.10;40.70;;;;;;5033810;28;20008;-71
2022/03/07 11:33:14;;;;;;;;;;;4.30;40.40;;;;;;5034738;28;19940;-71
2022/03/07 11:35:42;;;;;;;;;;;4.50;40.30;;;;;;5031572;28;19925;-73
2022/03/07 11:38:13;;;;;;;;;;;4.30;39.70;;;;;;5034621;28;19971;-71
2022/03/07 11:40:55;;;;;;;;;;;4.10;38.90;;;;;;5032513;28;19931;-70
2022/03/07 11:43:24;;;;;;;;;;;4.40;40.70;;;;;;5034399;28;19932;-71
2022/03/07 11:45:51;;;;;;;;;;;4.60;37.70;;;;;;5030054;28;19933;-71
2022/03/07 11:48:17;;;;;;;;;;;4.50;37.20;;;;;;5034510;28;19963;-70
2022/03/07 11:50:45;;;;;;;;;;;4.40;37.40;;;;;;5032174;28;19956;-71
2022/03/07 11:53:14;;;;;;;;;;;4.30;37.50;;;;;;5032765;28;20391;-71
2022/03/07 11:55:45;;;;;;;;;;;4.30;38.10;;;;;;5033023;28;19932;-71
2022/03/07 11:58:11;;;;;;;;;;;4.40;38.00;;;;;;5033056;28;20388;-71
2022/03/07 12:00:40;;;;;;;;;;;4.40;37.70;;;;;;5032570;28;20295;-71
2022/03/07 12:03:10;;;;;;;;;;;4.70;38.10;;;;;;5033857;28;20387;-71
2022/03/07 12:05:37;;;;;;;;;;;4.70;36.90;;;;;;5033886;28;19967;-71
2022/03/07 12:08:08;;;;;;;;;;;4.60;37.00;;;;;;5036795;28;19975;-71
2022/03/07 12:10:36;;;;;;;;;;;4.50;36.50;;;;;;5035005;28;19925;-71
2022/03/07 12:13:06;;;;;;;;;;;4.50;36.80;;;;;;5034764;28;19965;-70
2022/03/07 12:15:44;;;;;;;;;;;4.90;36.80;;;;;;5031585;28;20024;-70
2022/03/07 12:18:11;;;;;;;;;;;4.70;36.30;;;;;;5032929;28;19925;-70
2022/03/07 12:20:46;;;;;;;;;;;4.60;36.70;;;;;;5032083;28;19925;-70
2022/03/07 12:23:13;;;;;;;;;;;4.90;37.10;;;;;;5032861;28;19929;-70
2022/03/07 12:25:39;;;;;;;;;;;5.20;36.60;;;;;;5032234;28;19925;-71
2022/03/07 12:28:06;;;;;;;;;;;5.40;37.50;;;;;;5036560;28;19929;-71
2022/03/07 12:30:32;;;;;;;;;;;5.20;35.10;;;;;;5032302;28;19925;-71
2022/03/07 12:33:06;;;;;;;;;;;5.10;34.60;;;;;;5032915;28;20016;-72
2022/03/07 12:35:33;;;;;;;;;;;5.10;36.60;;;;;;5031324;28;19951;-71
2022/03/07 12:37:59;;;;;;;;;;;4.90;35.70;;;;;;5033573;28;19971;-70
2022/03/07 12:40:27;;;;;;;;;;;4.90;35.70;;;;;;5031401;28;20012;-70
2022/03/07 12:42:54;;;;;;;;;;;5.00;35.40;;;;;;5033549;28;19935;-70
2022/03/07 12:45:20;;;;;;;;;;;5.20;35.70;;;;;;5032274;28;19932;-70
2022/03/07 12:47:47;;;;;;;;;;;5.40;34.40;;;;;;5033146;28;19969;-70
2022/03/07 12:50:15;;;;;;;;;;;5.20;33.90;;;;;;5032034;28;19925;-71
2022/03/07 12:52:43;;;;;;;;;;;5.30;33.80;;;;;;5032151;28;19959;-71
2022/03/07 12:55:11;;;;;;;;;;;5.40;34.50;;;;;;5032495;28;19925;-71
2022/03/07 12:57:38;;;;;;;;;;;5.40;35.10;;;;;;5030182;28;19925;-71
2022/03/07 13:00:06;;;;;;;;;;;5.50;33.10;;;;;;5032438;28;19925;-71
2022/03/07 13:02:33;;;;;;;;;;;5.30;33.20;;;;;;5033115;28;19925;-71
2022/03/07 13:05:00;;;;;;;;;;;5.40;35.10;;;;;;5030890;28;19979;-71
2022/03/07 13:07:29;;;;;;;;;;;5.50;34.00;;;;;;5032467;28;20032;-72
2022/03/07 13:09:56;;;;;;;;;;;5.70;33.00;;;;;;5028323;28;20036;-71
2022/03/07 13:12:22;;;;;;;;;;;5.60;33.60;;;;;;5032679;28;19925;-71
2022/03/07 13:14:49;;;;;;;;;;;5.80;33.80;;;;;;5031653;28;19925;-71
2022/03/07 13:17:18;;;;;;;;;;;6.00;32.40;;;;;;5033196;28;19929;-71
2022/03/07 13:19:46;;;;;;;;;;;5.60;32.60;;;;;;5030218;28;19997;-72
2022/03/07 13:22:13;;;;;;;;;;;5.80;32.50;;;;;;5030786;28;19932;-70
2022/03/07 13:24:42;;;;;;;;;;;5.80;31.40;;;;;;5030499;28;19964;-70
2022/03/07 13:27:10;;;;;;;;;;;5.80;31.90;;;;;;5032580;28;20299;-71
2022/03/07 13:29:38;;;;;;;;;;;6.00;31.70;;;;;;5032769;28;20045;-71
2022/03/07 13:32:05;;;;;;;;;;;6.00;31.20;;;;;;5033213;28;19925;-71
2022/03/07 13:34:43;;;;;;;;;;;6.20;31.20;;;;;;5031423;28;19933;-72
2022/03/07 13:37:11;;;;;;;;;;;6.00;30.80;;;;;;5012677;28;20019;-71
2022/03/07 13:39:39;;;;;;;;;;;5.80;30.50;;;;;;5021786;28;19925;-72
2022/03/07 13:42:08;;;;;;;;;;;5.80;29.90;;;;;;5033261;28;19979;-71
2022/03/07 13:44:35;;;;;;;;;;;5.80;30.50;;;;;;5031781;28;19925;-71
2022/03/07 13:47:03;;;;;;;;;;;6.00;30.00;;;;;;5032908;28;19925;-71
2022/03/07 13:49:41;;;;;;;;;;;5.90;30.50;;;;;;5030983;28;19931;-71
2022/03/07 13:52:18;;;;;;;;;;;6.00;30.10;;;;;;5031160;28;20392;-70
2022/03/07 13:54:49;;;;;;;;;;;6.10;29.80;;;;;;5031716;28;19966;-72
2022/03/07 13:57:17;;;;;;;;;;;6.10;29.80;;;;;;5031397;28;19929;-70
2022/03/07 13:59:54;;;;;;;;;;;6.20;29.90;;;;;;5030926;28;20443;-70
2022/03/07 14:02:21;;;;;;;;;;;6.30;30.90;;;;;;5032165;28;19940;-70
2022/03/07 14:04:51;;;;;;;;;;;6.40;30.70;;;;;;5031472;28;20004;-70
2022/03/07 14:07:20;;;;;;;;;;;6.50;30.40;;;;;;5032526;28;20000;-71
2022/03/07 14:09:50;;;;;;;;;;;6.50;28.20;;;;;;5030056;28;20011;-71
2022/03/07 14:12:25;;;;;;;;;;;6.50;28.60;;;;;;5031766;28;20013;-70
2022/03/07 14:14:56;;;;;;;;;;;6.50;28.00;;;;;;5030069;28;19925;-72
2022/03/07 14:17:22;;;;;;;;;;;6.40;28.40;;;;;;5032228;28;19925;-70
2022/03/07 14:19:49;;;;;;;;;;;6.10;27.90;;;;;;5029967;28;19960;-71
2022/03/07 14:22:19;;;;;;;;;;;6.10;28.10;;;;;;5031464;28;20011;-71
2022/03/07 14:24:45;;;;;;;;;;;6.20;28.80;;;;;;5031503;28;19971;-71